createdAt,value
2022-08-24T00:01:46.728Z,100141.13
2022-08-24T00:04:13.788Z,100143.03
2022-08-24T00:06:43.212Z,100147.63
2022-08-24T00:09:10.188Z,100148.69
2022-08-24T00:11:37.155Z,100147.00
2022-08-24T00:14:04.496Z,100150.56
2022-08-24T00:16:31.771Z,100157.72
2022-08-24T00:18:58.780Z,100154.78
2022-08-24T00:21:27.358Z,100151.19
2022-08-24T00:23:54.708Z,100156.88
2022-08-24T00:26:28.656Z,100156.25
2022-08-24T00:28:57.640Z,100161.50
2022-08-24T00:31:26.221Z,100156.03
2022-08-24T00:33:54.441Z,100155.63
2022-08-24T00:36:22.183Z,100160.69
2022-08-24T00:38:49.697Z,100154.16
2022-08-24T00:41:17.354Z,100157.16
2022-08-24T00:43:58.901Z,100160.28
2022-08-24T00:46:30.591Z,100159.63
2022-08-24T00:49:21.468Z,100159.81
2022-08-24T00:51:56.873Z,100160.25
2022-08-24T00:54:26.918Z,100155.63
2022-08-24T00:56:58.542Z,100155.63
2022-08-24T00:59:30.557Z,100154.59
2022-08-24T01:02:02.173Z,100154.59
2022-08-24T01:04:48.980Z,100152.50
2022-08-24T01:07:16.321Z,100156.88
2022-08-24T01:09:43.251Z,100148.53
2022-08-24T01:12:10.680Z,100151.25
2022-08-24T01:14:38.094Z,100150.59
2022-08-24T01:17:24.092Z,100159.22
2022-08-24T01:19:55.218Z,100157.72
2022-08-24T01:22:33.021Z,100165.28
2022-08-24T01:25:00.499Z,100161.91
2022-08-24T01:27:28.348Z,100163.16
2022-08-24T01:29:56.068Z,100160.41
2022-08-24T01:32:24.616Z,100146.38
2022-08-24T01:34:51.607Z,100153.47
2022-08-24T01:37:18.451Z,100156.81
2022-08-24T01:39:47.021Z,100152.59
2022-08-24T01:42:14.436Z,100152.16
2022-08-24T01:44:45.466Z,100150.44
2022-08-24T01:47:15.342Z,100145.19
2022-08-24T01:49:45.228Z,100150.00
2022-08-24T01:52:14.547Z,100140.34
2022-08-24T01:54:43.596Z,100140.75
2022-08-24T01:57:11.039Z,100139.91
2022-08-24T01:59:43.152Z,100134.00
2022-08-24T02:02:22.618Z,100135.69
2022-08-24T02:04:49.390Z,100136.03
2022-08-24T02:07:15.885Z,100132.03
2022-08-24T02:09:42.669Z,100127.63
2022-08-24T02:12:09.386Z,100133.53
2022-08-24T02:14:36.607Z,100126.75
2022-08-24T02:17:05.521Z,100128.38
2022-08-24T02:19:32.532Z,100134.66
2022-08-24T02:22:00.428Z,100131.06
2022-08-24T02:24:30.453Z,100137.19
2022-08-24T02:26:57.060Z,100136.72
2022-08-24T02:29:23.635Z,100128.72
2022-08-24T02:31:50.337Z,100129.09
2022-08-24T02:34:17.541Z,100137.47
2022-08-24T02:36:44.006Z,100131.34
2022-08-24T02:39:10.741Z,100131.13
2022-08-24T02:41:37.790Z,100121.47
2022-08-24T02:44:04.946Z,100124.69
2022-08-24T02:46:31.964Z,100122.09
2022-08-24T02:49:11.327Z,100123.31
2022-08-24T02:51:44.121Z,100127.84
2022-08-24T02:54:13.381Z,100131.59
2022-08-24T02:56:39.818Z,100128.97
2022-08-24T02:59:06.556Z,100130.84
2022-08-24T03:01:33.088Z,100131.03
2022-08-24T03:03:59.574Z,100135.59
2022-08-24T03:06:26.058Z,100128.00
2022-08-24T03:08:56.148Z,100140.31
2022-08-24T03:11:27.717Z,100139.00
2022-08-24T03:13:56.911Z,100137.50
2022-08-24T03:16:23.364Z,100136.19
2022-08-24T03:18:50.046Z,100135.44
2022-08-24T03:21:16.844Z,100140.03
2022-08-24T03:23:43.534Z,100134.78
2022-08-24T03:26:11.014Z,100137.88
2022-08-24T03:28:37.525Z,100141.88
2022-08-24T03:31:04.489Z,100140.94
2022-08-24T03:33:31.044Z,100147.06
2022-08-24T03:35:57.533Z,100147.50
2022-08-24T03:38:24.936Z,100148.91
2022-08-24T03:40:51.502Z,100153.31
2022-08-24T03:43:36.811Z,100148.53
2022-08-24T03:46:06.256Z,100142.06
2022-08-24T03:48:33.018Z,100145.41
2022-08-24T03:50:59.557Z,100150.22
2022-08-24T03:53:26.128Z,100150.59
2022-08-24T03:55:52.669Z,100151.91
2022-08-24T03:58:19.176Z,100154.38
2022-08-24T04:00:45.717Z,100158.78
2022-08-24T04:03:13.143Z,100164.03
2022-08-24T04:05:40.782Z,100168.06
2022-08-24T04:08:08.192Z,100162.06
2022-08-24T04:10:35.196Z,100160.44
2022-08-24T04:13:01.792Z,100169.91
2022-08-24T04:15:29.281Z,100171.00
2022-08-24T04:17:55.789Z,100161.78
2022-08-24T04:20:23.891Z,100166.69
2022-08-24T04:22:51.422Z,100160.28
2022-08-24T04:25:24.662Z,100165.13
2022-08-24T04:27:51.934Z,100162.28
2022-08-24T04:30:18.773Z,100156.25
2022-08-24T04:32:45.364Z,100158.59
2022-08-24T04:35:12.626Z,100158.19
2022-08-24T04:37:39.089Z,100157.56
2022-08-24T04:40:08.042Z,100163.09
2022-08-24T04:42:35.537Z,100169.63
2022-08-24T04:45:04.086Z,100165.28
2022-08-24T04:47:30.581Z,100169.91
2022-08-24T04:49:57.140Z,100175.22
2022-08-24T04:52:24.143Z,100182.81
2022-08-24T04:54:50.731Z,100181.84
2022-08-24T04:57:20.759Z,100190.06
2022-08-24T04:59:47.238Z,100199.38
2022-08-24T05:02:13.855Z,100201.13
2022-08-24T05:04:40.503Z,100206.63
2022-08-24T05:07:07.040Z,100212.13
2022-08-24T05:09:33.460Z,100216.56
2022-08-24T05:11:59.962Z,100222.88
2022-08-24T05:14:28.997Z,100219.78
2022-08-24T05:16:56.041Z,100221.91
2022-08-24T05:19:23.481Z,100239.34
2022-08-24T05:21:50.359Z,100237.09
2022-08-24T05:24:17.159Z,100243.06
2022-08-24T05:26:43.569Z,100250.00
2022-08-24T05:29:10.712Z,100258.66
2022-08-24T05:31:37.510Z,100264.75
2022-08-24T05:34:04.440Z,100274.44
2022-08-24T05:36:34.364Z,100276.34
2022-08-24T05:39:06.998Z,100270.66
2022-08-24T05:41:37.163Z,100275.75
2022-08-24T05:44:06.573Z,100279.06
2022-08-24T05:46:33.472Z,100290.03
2022-08-24T05:49:00.355Z,100283.69
2022-08-24T05:51:27.366Z,100292.28
2022-08-24T05:53:53.957Z,100303.28
2022-08-24T05:56:20.543Z,100295.47
2022-08-24T05:58:47.400Z,100297.72
2022-08-24T06:01:20.894Z,100311.59
2022-08-24T06:03:48.382Z,100310.28
2022-08-24T06:06:16.305Z,100303.09
2022-08-24T06:08:46.292Z,100311.47
2022-08-24T06:11:24.794Z,100309.66
2022-08-24T06:14:07.623Z,100313.75
2022-08-24T06:16:38.720Z,100308.16
2022-08-24T06:19:09.283Z,100310.81
2022-08-24T06:21:39.204Z,100318.16
2022-08-24T06:24:08.953Z,100324.25
2022-08-24T06:26:56.402Z,100326.03
2022-08-24T06:29:26.398Z,100331.81
2022-08-24T06:31:56.400Z,100328.16
2022-08-24T06:34:26.130Z,100324.41
2022-08-24T06:36:55.451Z,100329.81
2022-08-24T06:39:22.182Z,100329.19
2022-08-24T06:41:49.134Z,100324.78
2022-08-24T06:44:15.768Z,100331.28
2022-08-24T06:46:42.279Z,100328.19
2022-08-24T06:49:08.923Z,100336.38
2022-08-24T06:51:35.411Z,100341.28
2022-08-24T06:54:02.101Z,100342.38
2022-08-24T06:56:28.673Z,100338.53
2022-08-24T06:58:55.424Z,100339.31
2022-08-24T07:01:25.749Z,100342.19
2022-08-24T07:03:52.801Z,100351.84
2022-08-24T07:06:19.576Z,100352.50
2022-08-24T07:08:46.590Z,100355.44
2022-08-24T07:11:15.009Z,100355.44
2022-08-24T07:13:41.887Z,100353.09
2022-08-24T07:16:10.113Z,100351.28
2022-08-24T07:18:37.185Z,100351.09
2022-08-24T07:21:05.106Z,100352.31
2022-08-24T07:23:42.187Z,100357.03
2022-08-24T07:26:21.102Z,100357.13
2022-08-24T07:28:53.713Z,100357.31
2022-08-24T07:31:21.153Z,100351.69
2022-08-24T07:33:47.991Z,100365.69
2022-08-24T07:36:22.012Z,100363.03
2022-08-24T07:38:52.576Z,100358.28
2022-08-24T07:41:40.259Z,100358.28
2022-08-24T07:44:08.287Z,100364.47
2022-08-24T07:46:34.877Z,100361.34
2022-08-24T07:49:11.723Z,100353.56
2022-08-24T07:51:46.945Z,100361.06
2022-08-24T07:54:13.969Z,100366.28
2022-08-24T07:56:41.492Z,100371.47
2022-08-24T07:59:12.474Z,100366.53
2022-08-24T08:01:42.875Z,100371.59
2022-08-24T08:04:09.816Z,100368.06
2022-08-24T08:06:37.384Z,100372.59
2022-08-24T08:09:05.418Z,100362.00
2022-08-24T08:11:32.560Z,100364.25
2022-08-24T08:13:59.270Z,100380.31
2022-08-24T08:16:27.740Z,100377.13
2022-08-24T08:19:09.398Z,100384.13
2022-08-24T08:22:00.424Z,100376.63
2022-08-24T08:24:27.049Z,100380.56
2022-08-24T08:26:55.926Z,100384.66
2022-08-24T08:29:24.320Z,100379.69
2022-08-24T08:31:52.206Z,100380.84
2022-08-24T08:34:18.863Z,100385.03
2022-08-24T08:36:45.606Z,100378.97
2022-08-24T08:39:14.291Z,100386.00
2022-08-24T08:41:58.190Z,100387.44
2022-08-24T08:44:43.556Z,100389.75
2022-08-24T08:47:30.597Z,100387.88
2022-08-24T08:50:06.386Z,100392.41
2022-08-24T08:52:48.803Z,100383.78
2022-08-24T08:55:24.289Z,100380.31
2022-08-24T08:57:51.224Z,100382.84
2022-08-24T09:00:22.294Z,100379.31
2022-08-24T09:03:12.661Z,100377.41
2022-08-24T09:06:16.904Z,100377.50
2022-08-24T09:09:06.634Z,100382.59
2022-08-24T09:11:58.074Z,100376.72
2022-08-24T09:14:46.711Z,100375.22
2022-08-24T09:17:52.472Z,100379.97
2022-08-24T09:20:46.734Z,100372.81
2022-08-24T09:23:29.495Z,100379.56
2022-08-24T09:26:02.391Z,100380.63
2022-08-24T09:28:44.888Z,100379.66
2022-08-24T09:31:38.818Z,100378.22
2022-08-24T09:34:39.966Z,100375.69
2022-08-24T09:37:09.396Z,100377.28
2022-08-24T09:39:37.334Z,100371.94
2022-08-24T09:42:19.589Z,100371.97
2022-08-24T09:45:26.627Z,100372.44
2022-08-24T09:48:20.167Z,100365.25
2022-08-24T09:50:59.860Z,100368.00
2022-08-24T09:53:32.387Z,100367.75
2022-08-24T09:56:14.375Z,100365.38
2022-08-24T09:58:50.503Z,100365.09
2022-08-24T10:01:28.693Z,100365.84
2022-08-24T10:04:03.986Z,100359.94
2022-08-24T10:06:55.472Z,100359.59
2022-08-24T10:09:34.392Z,100359.47
2022-08-24T10:12:37.569Z,100356.66
2022-08-24T10:15:16.695Z,100350.56
2022-08-24T10:17:46.195Z,100358.38
2022-08-24T10:20:24.101Z,100352.41
2022-08-24T10:23:28.265Z,100354.81
2022-08-24T10:26:21.047Z,100349.56
2022-08-24T10:29:25.217Z,100346.19
2022-08-24T10:32:21.182Z,100350.88
2022-08-24T10:35:00.432Z,100352.56
2022-08-24T10:37:51.742Z,100343.66
2022-08-24T10:40:36.226Z,100345.38
2022-08-24T10:43:36.759Z,100335.59
2022-08-24T10:46:36.530Z,100340.69
2022-08-24T10:49:35.029Z,100336.22
2022-08-24T10:52:23.095Z,100336.38
2022-08-24T10:54:51.409Z,100345.66
2022-08-24T10:57:28.613Z,100342.06
2022-08-24T11:00:01.182Z,100342.63
2022-08-24T11:02:34.135Z,100342.91
2022-08-24T11:05:14.523Z,100342.31
2022-08-24T11:08:02.717Z,100339.53
2022-08-24T11:10:37.215Z,100343.44
2022-08-24T11:13:25.902Z,100346.16
2022-08-24T11:16:05.705Z,100341.63
2022-08-24T11:18:54.473Z,100345.94
2022-08-24T11:21:34.097Z,100345.41
2022-08-24T11:24:10.820Z,100349.97
2022-08-24T11:27:26.094Z,100349.66
2022-08-24T11:30:35.149Z,100340.41
2022-08-24T11:33:54.701Z,100341.69
2022-08-24T11:36:33.360Z,100347.44
2022-08-24T11:39:21.934Z,100340.69
2022-08-24T11:42:29.205Z,100336.81
2022-08-24T11:45:13.107Z,100342.97
2022-08-24T11:48:29.623Z,100339.22
2022-08-24T11:51:15.139Z,100347.56
2022-08-24T11:54:09.702Z,100344.94
2022-08-24T11:56:43.730Z,100335.81
2022-08-24T11:59:17.767Z,100347.50
2022-08-24T12:02:05.233Z,100349.97
2022-08-24T12:04:56.718Z,100348.34
2022-08-24T12:07:42.576Z,100347.06
2022-08-24T12:10:19.324Z,100344.56
2022-08-24T12:12:57.898Z,100349.97
2022-08-24T12:15:48.706Z,100338.00
2022-08-24T12:18:34.349Z,100335.47
2022-08-24T12:21:01.422Z,100342.66
2022-08-24T12:23:50.503Z,100342.59
2022-08-24T12:26:56.935Z,100339.03
2022-08-24T12:29:29.304Z,100326.97
2022-08-24T12:32:02.230Z,100332.22
2022-08-24T12:34:58.769Z,100328.16
2022-08-24T12:37:32.781Z,100325.94
2022-08-24T12:40:24.393Z,100326.22
2022-08-24T12:43:08.662Z,100321.25
2022-08-24T12:45:36.998Z,100319.41
2022-08-24T12:48:24.331Z,100317.97
2022-08-24T12:51:07.699Z,100319.69
2022-08-24T12:53:47.574Z,100307.03
2022-08-24T12:56:42.955Z,100307.66
2022-08-24T12:59:25.641Z,100298.41
2022-08-24T13:02:01.663Z,100316.13
2022-08-24T13:04:39.620Z,100320.50
2022-08-24T13:07:10.572Z,100321.47
2022-08-24T13:09:40.390Z,100317.38
2022-08-24T13:12:34.761Z,100326.63
2022-08-24T13:15:22.378Z,100325.53
2022-08-24T13:18:03.071Z,100317.84
2022-08-24T13:20:36.305Z,100315.34
2022-08-24T13:23:18.945Z,100317.59
2022-08-24T13:25:48.209Z,100322.25
2022-08-24T13:28:20.949Z,100317.34
2022-08-24T13:30:53.646Z,100319.34
2022-08-24T13:33:37.791Z,100322.31
2022-08-24T13:36:06.232Z,100318.75
2022-08-24T13:38:35.697Z,100313.59
2022-08-24T13:41:08.187Z,100319.88
2022-08-24T13:43:52.171Z,100325.47
2022-08-24T13:46:57.302Z,100314.19
2022-08-24T13:49:44.059Z,100311.13
2022-08-24T13:52:37.408Z,100303.66
2022-08-24T13:55:22.779Z,100297.88
2022-08-24T13:58:23.921Z,100304.53
2022-08-24T14:01:01.613Z,100307.56
2022-08-24T14:03:38.605Z,100312.13
2022-08-24T14:06:30.709Z,100314.56
2022-08-24T14:09:12.942Z,100311.59
2022-08-24T14:11:51.590Z,100300.00
2022-08-24T14:14:51.295Z,100303.09
2022-08-24T14:17:50.208Z,100303.72
2022-08-24T14:20:58.412Z,100296.84
2022-08-24T14:23:34.009Z,100300.50
2022-08-24T14:26:40.226Z,100308.16
2022-08-24T14:29:15.543Z,100304.13
2022-08-24T14:32:12.325Z,100299.91
2022-08-24T14:34:41.887Z,100299.78
2022-08-24T14:37:23.379Z,100299.34
2022-08-24T14:40:00.250Z,100298.47
2022-08-24T14:42:40.258Z,100297.47
2022-08-24T14:45:21.710Z,100298.66
2022-08-24T14:48:10.040Z,100289.75
2022-08-24T14:50:59.048Z,100291.97
2022-08-24T14:53:49.091Z,100283.13
2022-08-24T14:56:49.755Z,100288.50
2022-08-24T14:59:22.401Z,100285.94
2022-08-24T15:01:51.293Z,100282.84
2022-08-24T15:04:37.384Z,100276.50
2022-08-24T15:07:29.468Z,100273.78
2022-08-24T15:09:59.499Z,100274.41
2022-08-24T15:12:44.156Z,100278.00
2022-08-24T15:15:34.369Z,100272.94
2022-08-24T15:18:22.611Z,100270.03
2022-08-24T15:21:11.098Z,100271.06
2022-08-24T15:24:09.727Z,100266.38
2022-08-24T15:26:42.963Z,100271.78
2022-08-24T15:29:18.604Z,100267.34
2022-08-24T15:32:11.671Z,100266.75
2022-08-24T15:34:49.486Z,100266.31
2022-08-24T15:37:26.132Z,100267.59
2022-08-24T15:39:52.671Z,100262.38
2022-08-24T15:42:24.408Z,100258.38
2022-08-24T15:45:09.995Z,100263.06
2022-08-24T15:47:38.956Z,100257.38
2022-08-24T15:50:09.339Z,100253.13
2022-08-24T15:53:17.461Z,100251.19
2022-08-24T15:55:47.229Z,100254.53
2022-08-24T15:58:27.963Z,100253.38
2022-08-24T16:01:37.539Z,100257.75
2022-08-24T16:04:12.749Z,100249.66
2022-08-24T16:06:46.490Z,100250.50
2022-08-24T16:09:19.569Z,100246.69
2022-08-24T16:12:01.907Z,100243.09
2022-08-24T16:14:38.315Z,100251.13
2022-08-24T16:17:27.929Z,100250.47
2022-08-24T16:19:58.166Z,100251.69
2022-08-24T16:22:35.810Z,100253.75
2022-08-24T16:25:22.588Z,100255.06
2022-08-24T16:27:58.321Z,100259.06
2022-08-24T16:30:47.081Z,100260.72
2022-08-24T16:33:43.329Z,100254.59
2022-08-24T16:36:17.961Z,100259.56
2022-08-24T16:38:49.825Z,100261.34
2022-08-24T16:41:20.291Z,100263.41
2022-08-24T16:43:47.412Z,100255.06
2022-08-24T16:46:19.573Z,100246.72
2022-08-24T16:48:45.976Z,100253.41
2022-08-24T16:51:12.459Z,100249.22
2022-08-24T16:53:49.945Z,100248.72
2022-08-24T16:56:17.046Z,100248.50
2022-08-24T16:58:45.336Z,100247.03
2022-08-24T17:01:13.771Z,100244.00
2022-08-24T17:03:40.614Z,100244.00
2022-08-24T17:06:07.352Z,100243.69
2022-08-24T17:08:34.096Z,100243.47
2022-08-24T17:11:00.506Z,100248.16
2022-08-24T17:13:48.438Z,100244.31
2022-08-24T17:16:13.637Z,100248.72
2022-08-24T17:18:41.575Z,100249.59
2022-08-24T17:21:08.409Z,100251.84
2022-08-24T17:23:34.987Z,100249.53
2022-08-24T17:26:03.556Z,100254.53
2022-08-24T17:28:30.571Z,100256.66
2022-08-24T17:30:57.017Z,100253.50
2022-08-24T17:33:23.568Z,100264.34
2022-08-24T17:35:51.809Z,100267.13
2022-08-24T17:38:18.350Z,100257.75
2022-08-24T17:40:44.892Z,100269.13
2022-08-24T17:43:15.194Z,100275.50
2022-08-24T17:45:41.679Z,100279.88
2022-08-24T17:48:08.467Z,100276.78
2022-08-24T17:50:40.094Z,100281.09
2022-08-24T17:53:06.522Z,100278.53
2022-08-24T17:55:32.951Z,100282.03
2022-08-24T17:58:01.133Z,100286.31
2022-08-24T18:00:27.689Z,100284.41
2022-08-24T18:02:54.668Z,100287.59
2022-08-24T18:05:21.787Z,100293.72
2022-08-24T18:07:54.294Z,100289.00
2022-08-24T18:10:29.491Z,100283.97
2022-08-24T18:12:57.974Z,100280.94
2022-08-24T18:15:28.153Z,100281.72
2022-08-24T18:18:04.320Z,100287.44
2022-08-24T18:20:35.251Z,100285.00
2022-08-24T18:23:01.780Z,100291.31
2022-08-24T18:25:30.023Z,100287.44
2022-08-24T18:27:57.638Z,100280.81
2022-08-24T18:30:30.281Z,100288.50
2022-08-24T18:32:57.258Z,100292.81
2022-08-24T18:35:24.295Z,100292.53
2022-08-24T18:37:50.956Z,100288.06
2022-08-24T18:40:21.062Z,100286.88
2022-08-24T18:42:48.591Z,100286.56
2022-08-24T18:45:15.189Z,100295.50
2022-08-24T18:47:42.317Z,100303.78
2022-08-24T18:50:09.178Z,100297.91
2022-08-24T18:52:40.669Z,100300.97
2022-08-24T18:55:09.751Z,100292.56
2022-08-24T18:57:36.193Z,100296.19
2022-08-24T19:00:05.661Z,100296.50
2022-08-24T19:02:33.526Z,100296.31
2022-08-24T19:05:05.324Z,100295.72
2022-08-24T19:07:34.372Z,100299.59
2022-08-24T19:10:01.439Z,100295.88
2022-08-24T19:12:31.816Z,100300.38
2022-08-24T19:14:59.418Z,100298.69
2022-08-24T19:17:26.444Z,100289.22
2022-08-24T19:19:53.526Z,100290.09
2022-08-24T19:22:20.411Z,100289.31
2022-08-24T19:24:47.095Z,100292.28
2022-08-24T19:27:13.815Z,100281.97
2022-08-24T19:29:55.016Z,100287.03
2022-08-24T19:32:25.491Z,100286.88
2022-08-24T19:34:52.671Z,100282.91
2022-08-24T19:37:19.727Z,100283.94
2022-08-24T19:39:47.958Z,100275.53
2022-08-24T19:42:16.975Z,100265.44
2022-08-24T19:45:02.481Z,100277.47
2022-08-24T19:47:31.802Z,100276.44
2022-08-24T19:49:58.702Z,100278.16
2022-08-24T19:52:25.748Z,100287.84
2022-08-24T19:54:52.309Z,100281.31
2022-08-24T19:57:24.976Z,100279.63
2022-08-24T19:59:52.804Z,100277.16
2022-08-24T20:02:19.386Z,100271.88
2022-08-24T20:04:46.085Z,100282.19
2022-08-24T20:07:17.031Z,100280.94
2022-08-24T20:09:43.908Z,100284.31
2022-08-24T20:12:11.401Z,100280.94
2022-08-24T20:14:38.112Z,100285.81
2022-08-24T20:17:05.402Z,100282.03
2022-08-24T20:19:34.697Z,100283.91
2022-08-24T20:22:01.131Z,100280.59
2022-08-24T20:24:27.690Z,100271.31
2022-08-24T20:26:54.252Z,100277.44
2022-08-24T20:29:20.881Z,100277.84
2022-08-24T20:31:50.652Z,100276.78
2022-08-24T20:34:18.818Z,100278.91
2022-08-24T20:36:48.215Z,100277.25
2022-08-24T20:39:18.048Z,100276.19
2022-08-24T20:41:45.380Z,100265.03
2022-08-24T20:44:11.993Z,100262.28
2022-08-24T20:46:39.679Z,100265.19
2022-08-24T20:49:07.793Z,100253.25
2022-08-24T20:51:38.867Z,100263.53
2022-08-24T20:54:07.339Z,100257.84
2022-08-24T20:56:36.943Z,100259.09
2022-08-24T20:59:06.383Z,100255.94
2022-08-24T21:01:32.917Z,100250.28
2022-08-24T21:04:04.191Z,100251.13
2022-08-24T21:06:31.684Z,100243.75
2022-08-24T21:08:58.203Z,100248.16
2022-08-24T21:11:24.793Z,100239.75
2022-08-24T21:13:51.218Z,100233.00
2022-08-24T21:16:18.691Z,100242.28
2022-08-24T21:18:46.902Z,100240.56
2022-08-24T21:21:13.860Z,100244.16
2022-08-24T21:23:40.272Z,100246.84
2022-08-24T21:26:10.975Z,100247.50
2022-08-24T21:28:40.338Z,100246.41
2022-08-24T21:31:07.086Z,100251.44
2022-08-24T21:33:53.271Z,100251.03
2022-08-24T21:36:23.274Z,100245.34
2022-08-24T21:38:52.412Z,100249.53
2022-08-24T21:41:20.178Z,100250.56
2022-08-24T21:43:46.618Z,100244.91
2022-08-24T21:46:13.276Z,100250.56
2022-08-24T21:48:40.063Z,100242.16
2022-08-24T21:51:07.037Z,100251.56
2022-08-24T21:53:33.637Z,100253.88
2022-08-24T21:56:01.760Z,100246.31
2022-08-24T21:58:28.299Z,100248.38
2022-08-24T22:00:59.093Z,100245.47
2022-08-24T22:03:31.653Z,100244.63
2022-08-24T22:06:07.940Z,100241.44
2022-08-24T22:08:35.958Z,100238.72
2022-08-24T22:11:02.517Z,100234.31
2022-08-24T22:13:28.918Z,100238.72
2022-08-24T22:15:55.416Z,100229.06
2022-08-24T22:18:22.112Z,100231.78
2022-08-24T22:20:48.637Z,100233.44
2022-08-24T22:23:15.243Z,100231.53
2022-08-24T22:25:43.949Z,100226.28
2022-08-24T22:28:10.543Z,100226.88
2022-08-24T22:30:37.054Z,100222.22
2022-08-24T22:33:05.016Z,100220.94
2022-08-24T22:35:32.019Z,100227.69
2022-08-24T22:38:11.214Z,100222.81
2022-08-24T22:40:37.831Z,100215.09
2022-08-24T22:43:05.019Z,100216.13
2022-08-24T22:45:31.483Z,100213.81
2022-08-24T22:47:58.578Z,100218.63
2022-08-24T22:50:25.105Z,100209.53
2022-08-24T22:52:53.094Z,100207.22
2022-08-24T22:55:19.600Z,100202.41
2022-08-24T22:57:51.140Z,100196.50
2022-08-24T23:00:18.489Z,100201.91
2022-08-24T23:02:44.950Z,100200.41
2022-08-24T23:05:11.409Z,100196.84
2022-08-24T23:07:37.868Z,100201.84
2022-08-24T23:10:06.151Z,100199.56
2022-08-24T23:12:33.323Z,100206.25
2022-08-24T23:15:00.858Z,100207.44
2022-08-24T23:17:28.059Z,100200.31
2022-08-24T23:20:01.907Z,100206.16
2022-08-24T23:22:31.560Z,100197.34
2022-08-24T23:24:59.313Z,100200.91
2022-08-24T23:27:27.565Z,100195.22
2022-08-24T23:30:04.913Z,100198.31
2022-08-24T23:32:31.477Z,100194.53
2022-08-24T23:34:59.592Z,100192.84
2022-08-24T23:37:26.163Z,100185.91
2022-08-24T23:39:53.687Z,100190.72
2022-08-24T23:42:21.092Z,100182.53
2022-08-24T23:44:47.665Z,100183.59
2022-08-24T23:47:14.185Z,100178.78
2022-08-24T23:49:41.419Z,100172.25
2022-08-24T23:52:08.073Z,100177.25
2022-08-24T23:54:34.908Z,100181.84
2022-08-24T23:57:03.907Z,100175.94
2022-08-24T23:59:30.460Z,100177.22
